KMQY Airport (Smyrna) Information

FAA: MQY - ICAO: KMQY

KMQY Airport Location

State Tennessee
County Rutherford
City Smyrna
KMQY Airport is 2 miles north of Smyrna, TN.
Latitude 36-00-32.3000N
Longitude 086-31-12.3000W
Elevation 543ft

KMQY Airport METARs

METAR KMQY 302156Z 03011KT 10SM CLR 24/06 A2999 RMK AO2 SLP159 T02440056
Altimeter 29.99"
Temperature 24.4°C (75.9°F)
Wind 30° at 11KT
Clouds Skies are clear.
Visibility 10.0mi
Time observed: 2022-09-30T21:56:00Z

KMQY Airport Details

Status Operational
Activation October 1942
Ownership Public
Usage Public
Chart ATLANTA
ATC on-site Yes
Beacon schedule sunset-sunrise
Beacon color clear green

KMQY Airport Contacts

Owner SMYRNA/RUTHERFORD ARPT AUTH
Owner address 278 DOUG WARPOOLE RD., SMYRNA, TN 37167
Owner phone 615-459-2651
Manager WARREN SCOTT LEVEQUE
Manager address 5439 DIANA RD, PULASKI, TN 38478
Manager phone 7656213334

KMQY Airport (Smyrna) Radio Frequencies

KMQY (Airport) Radio Frequencies

UNICOM 122.95
Common traffic advisory frequency (CTAF) 118.5